Terminal Aerodrome Forecast
Issued by NWS Binghamton, NY

Home | Current Version | Previous Version | Text Only | Print | Product List | Glossary On
Versions: 1 2 3 4 5 6 7 8 9 10 11 12 13 14 15 16 17 18 19
640
FTUS41 KBGM 192055 AAA
TAFAVP
TAF AMD
KAVP 192055Z 1921/2018 31015G24KT P6SM SCT035 OVC090
      TEMPO 1921/1923 5SM -SHSN OVC035
     FM200600 31010G18KT P6SM BKN025
     FM201500 31015G25KT P6SM BKN040=

USA.gov is the U.S. government's official web portal to all federal, state and local government web resources and services.